createdAt,value
2023-04-09T00:01:01.635Z,51.28
2023-04-09T00:02:06.923Z,51.31
2023-04-09T00:03:12.394Z,51.2
2023-04-09T00:04:17.731Z,51.2
2023-04-09T00:05:22.953Z,51.23
2023-04-09T00:06:28.145Z,51.14
2023-04-09T00:07:33.339Z,51.19
2023-04-09T00:08:38.511Z,51.2
2023-04-09T00:09:43.684Z,51.22
2023-04-09T00:10:48.934Z,51.28
2023-04-09T00:11:54.107Z,51.26
2023-04-09T00:12:59.317Z,51.02
2023-04-09T00:14:04.507Z,50.95
2023-04-09T00:15:30.956Z,51.1
2023-04-09T00:16:36.891Z,50.97
2023-04-09T00:17:42.228Z,51.05
2023-04-09T00:18:47.507Z,51.04
2023-04-09T00:19:52.731Z,51.18
2023-04-09T00:20:57.922Z,51.17
2023-04-09T00:22:03.149Z,51.28
2023-04-09T00:23:08.334Z,51.19
2023-04-09T00:24:13.575Z,51.2
2023-04-09T00:25:18.788Z,51.17
2023-04-09T00:26:24.006Z,51.14
2023-04-09T00:27:29.206Z,51.15
2023-04-09T00:28:34.460Z,51.17
2023-04-09T00:29:39.813Z,51.08
2023-04-09T00:30:45.004Z,51.03
2023-04-09T00:31:50.275Z,50.96
2023-04-09T00:32:55.634Z,50.94
2023-04-09T00:34:00.874Z,50.86
2023-04-09T00:35:06.129Z,50.94
2023-04-09T00:36:11.514Z,51.04
2023-04-09T00:37:16.760Z,51.02
2023-04-09T00:38:21.946Z,50.97
2023-04-09T00:39:27.163Z,50.99
2023-04-09T00:40:32.373Z,51.02
2023-04-09T00:41:37.589Z,51.02
2023-04-09T00:42:42.775Z,51.01
2023-04-09T00:43:47.957Z,51.03
2023-04-09T00:44:53.144Z,50.91
2023-04-09T00:45:58.578Z,50.98
2023-04-09T00:47:03.839Z,50.95
2023-04-09T00:48:09.026Z,50.98
2023-04-09T00:49:14.227Z,50.99
2023-04-09T00:50:19.461Z,50.88
2023-04-09T00:51:24.689Z,50.93
2023-04-09T00:52:29.883Z,50.94
2023-04-09T00:53:35.104Z,50.87
2023-04-09T00:54:40.374Z,50.85
2023-04-09T00:55:45.638Z,50.88
2023-04-09T00:56:50.838Z,50.73
2023-04-09T00:57:56.004Z,50.81
2023-04-09T00:59:01.187Z,50.78
2023-04-09T01:00:06.360Z,50.85
2023-04-09T01:01:11.660Z,51.08
2023-04-09T01:02:17.285Z,50.94
2023-04-09T01:03:22.759Z,50.78
2023-04-09T01:04:28.044Z,50.83
2023-04-09T01:05:33.212Z,51.04
2023-04-09T01:06:38.410Z,50.87
2023-04-09T01:07:43.644Z,50.94
2023-04-09T01:08:48.824Z,51.03
2023-04-09T01:09:54.024Z,50.93
2023-04-09T01:10:59.230Z,50.9
2023-04-09T01:12:04.431Z,50.91
2023-04-09T01:13:09.625Z,51
2023-04-09T01:14:14.806Z,51.06
2023-04-09T01:15:19.988Z,50.97
2023-04-09T01:16:25.337Z,50.92
2023-04-09T01:17:30.684Z,50.9
2023-04-09T01:18:37.313Z,50.89
2023-04-09T01:19:42.492Z,50.89
2023-04-09T01:20:47.682Z,50.84
2023-04-09T01:21:52.862Z,50.84
2023-04-09T01:22:58.063Z,50.85
2023-04-09T01:24:03.258Z,50.86
2023-04-09T01:25:08.464Z,50.96
2023-04-09T01:26:13.689Z,51.03
2023-04-09T01:27:18.884Z,50.99
2023-04-09T01:28:24.113Z,50.84
2023-04-09T01:29:29.312Z,50.91
2023-04-09T01:30:34.600Z,50.89
2023-04-09T01:31:39.923Z,50.82
2023-04-09T01:32:45.202Z,50.89
2023-04-09T01:33:50.418Z,50.83
2023-04-09T01:34:55.593Z,50.91
2023-04-09T01:36:00.872Z,50.84
2023-04-09T01:37:06.105Z,50.88
2023-04-09T01:38:11.309Z,50.84
2023-04-09T01:39:16.468Z,50.85
2023-04-09T01:40:21.669Z,50.86
2023-04-09T01:41:26.946Z,50.78
2023-04-09T01:42:32.155Z,50.86
2023-04-09T01:43:37.376Z,50.77
2023-04-09T01:44:42.563Z,50.72
2023-04-09T01:45:47.994Z,50.68
2023-04-09T01:46:53.217Z,50.78
2023-04-09T01:47:58.469Z,50.75
2023-04-09T01:49:03.689Z,50.75
2023-04-09T01:50:08.907Z,50.85
2023-04-09T01:51:14.161Z,50.86
2023-04-09T01:52:19.371Z,50.8
2023-04-09T01:53:24.556Z,50.83
2023-04-09T01:54:29.784Z,50.63
2023-04-09T01:55:34.966Z,50.7
2023-04-09T01:56:40.148Z,50.65
2023-04-09T01:57:45.313Z,50.71
2023-04-09T01:58:50.844Z,50.78
2023-04-09T01:59:56.322Z,50.79
2023-04-09T02:01:01.575Z,50.69
2023-04-09T02:02:06.952Z,50.82
2023-04-09T02:03:12.442Z,50.8
2023-04-09T02:04:17.722Z,50.7
2023-04-09T02:05:22.948Z,50.76
2023-04-09T02:06:28.156Z,50.74
2023-04-09T02:07:33.331Z,50.67
2023-04-09T02:08:38.527Z,50.73
2023-04-09T02:09:43.744Z,50.76
2023-04-09T02:10:48.949Z,50.68
2023-04-09T02:11:54.130Z,50.73
2023-04-09T02:12:59.348Z,50.77
2023-04-09T02:14:04.578Z,50.65
2023-04-09T02:15:09.796Z,50.68
2023-04-09T02:16:15.256Z,50.56
2023-04-09T02:17:20.607Z,50.59
2023-04-09T02:18:25.849Z,50.68
2023-04-09T02:19:31.028Z,50.7
2023-04-09T02:20:36.283Z,50.57
2023-04-09T02:21:41.478Z,50.6
2023-04-09T02:22:46.685Z,50.66
2023-04-09T02:23:52.040Z,50.82
2023-04-09T02:24:57.213Z,50.58
2023-04-09T02:26:02.390Z,50.49
2023-04-09T02:27:07.596Z,50.54
2023-04-09T02:28:12.816Z,50.59
2023-04-09T02:29:18.026Z,50.66
2023-04-09T02:30:23.222Z,50.64
2023-04-09T02:31:28.611Z,50.55
2023-04-09T02:32:33.997Z,50.71
2023-04-09T02:33:39.243Z,50.59
2023-04-09T02:34:44.596Z,50.54
2023-04-09T02:35:49.877Z,50.54
2023-04-09T02:36:55.200Z,50.58
2023-04-09T02:38:00.419Z,50.56
2023-04-09T02:39:05.594Z,50.6
2023-04-09T02:40:10.793Z,50.54
2023-04-09T02:41:15.973Z,50.5
2023-04-09T02:42:21.198Z,50.53
2023-04-09T02:43:26.446Z,50.28
2023-04-09T02:44:31.676Z,50.56
2023-04-09T02:45:36.940Z,50.5
2023-04-09T02:46:42.516Z,50.57
2023-04-09T02:47:47.957Z,50.53
2023-04-09T02:48:53.963Z,50.62
2023-04-09T02:49:59.308Z,50.65
2023-04-09T02:51:04.514Z,50.59
2023-04-09T02:52:09.716Z,50.49
2023-04-09T02:53:14.938Z,50.66
2023-04-09T02:54:20.143Z,50.71
2023-04-09T02:55:25.343Z,50.66
2023-04-09T02:56:30.562Z,50.62
2023-04-09T02:57:36.336Z,50.65
2023-04-09T02:58:41.537Z,50.65
2023-04-09T02:59:46.734Z,50.47
2023-04-09T03:00:51.924Z,50.54
2023-04-09T03:01:57.328Z,50.51
2023-04-09T03:03:03.188Z,50.59
2023-04-09T03:04:08.727Z,50.66
2023-04-09T03:05:14.130Z,50.61
2023-04-09T03:06:19.328Z,50.58
2023-04-09T03:07:24.668Z,50.56
2023-04-09T03:08:29.860Z,50.58
2023-04-09T03:09:35.074Z,50.57
2023-04-09T03:10:40.286Z,50.56
2023-04-09T03:11:45.525Z,50.62
2023-04-09T03:12:50.715Z,50.46
2023-04-09T03:13:55.881Z,50.67
2023-04-09T03:15:01.081Z,50.65
2023-04-09T03:16:06.507Z,50.62
2023-04-09T03:17:11.724Z,50.67
2023-04-09T03:18:16.976Z,50.67
2023-04-09T03:19:22.183Z,50.55
2023-04-09T03:20:27.371Z,50.74
2023-04-09T03:21:32.533Z,50.65
2023-04-09T03:22:37.722Z,50.72
2023-04-09T03:23:42.921Z,50.61
2023-04-09T03:24:48.104Z,50.71
2023-04-09T03:25:53.311Z,50.53
2023-04-09T03:26:58.525Z,50.5
2023-04-09T03:28:03.686Z,50.58
2023-04-09T03:29:08.876Z,50.49
2023-04-09T03:30:14.100Z,50.58
2023-04-09T03:31:19.437Z,50.6
2023-04-09T03:32:24.777Z,50.53
2023-04-09T03:33:30.005Z,50.53
2023-04-09T03:34:35.192Z,50.58
2023-04-09T03:35:40.544Z,50.52
2023-04-09T03:36:45.767Z,50.54
2023-04-09T03:37:50.964Z,50.58
2023-04-09T03:38:56.629Z,50.63
2023-04-09T03:40:01.897Z,50.57
2023-04-09T03:41:07.085Z,50.55
2023-04-09T03:42:12.268Z,50.82
2023-04-09T03:43:17.488Z,50.7
2023-04-09T03:44:22.671Z,50.49
2023-04-09T03:45:27.875Z,50.52
2023-04-09T03:46:33.362Z,50.56
2023-04-09T03:47:38.700Z,50.58
2023-04-09T03:48:43.960Z,50.57
2023-04-09T03:49:49.160Z,50.62
2023-04-09T03:50:54.342Z,50.52
2023-04-09T03:51:59.570Z,50.6
2023-04-09T03:53:04.784Z,50.6
2023-04-09T03:54:09.964Z,50.54
2023-04-09T03:55:15.150Z,50.55
2023-04-09T03:56:20.344Z,50.64
2023-04-09T03:57:25.545Z,50.53
2023-04-09T03:58:30.799Z,50.56
2023-04-09T03:59:35.981Z,50.63
2023-04-09T04:00:41.156Z,50.57
2023-04-09T04:01:46.619Z,50.53
2023-04-09T04:02:52.744Z,50.55
2023-04-09T04:03:58.453Z,50.43
2023-04-09T04:05:03.685Z,50.51
2023-04-09T04:06:08.897Z,50.52
2023-04-09T04:07:14.116Z,50.58
2023-04-09T04:08:19.276Z,50.52
2023-04-09T04:09:24.457Z,50.19
2023-04-09T04:10:29.644Z,50.4
2023-04-09T04:11:34.865Z,50.22
2023-04-09T04:12:40.076Z,50.23
2023-04-09T04:13:45.325Z,50.48
2023-04-09T04:14:50.523Z,50.65
2023-04-09T04:15:55.911Z,50.53
2023-04-09T04:17:01.124Z,50.52
2023-04-09T04:18:06.309Z,50.47
2023-04-09T04:19:12.627Z,50.42
2023-04-09T04:20:17.974Z,50.35
2023-04-09T04:21:23.213Z,50.3
2023-04-09T04:22:29.055Z,50.29
2023-04-09T04:23:34.326Z,50.26
2023-04-09T04:24:39.534Z,50.2
2023-04-09T04:25:44.789Z,50.21
2023-04-09T04:26:50.001Z,50.19
2023-04-09T04:27:55.207Z,50.05
2023-04-09T04:29:00.396Z,50.04
2023-04-09T04:30:05.626Z,50.03
2023-04-09T04:31:10.856Z,49.98
2023-04-09T04:32:16.030Z,49.95
2023-04-09T04:33:21.205Z,49.95
2023-04-09T04:34:26.452Z,49.88
2023-04-09T04:35:31.737Z,49.84
2023-04-09T04:36:36.965Z,49.84
2023-04-09T04:37:42.151Z,49.8
2023-04-09T04:38:47.342Z,49.77
2023-04-09T04:39:52.512Z,49.68
2023-04-09T04:40:57.728Z,49.67
2023-04-09T04:42:02.962Z,49.65
2023-04-09T04:43:08.159Z,49.56
2023-04-09T04:44:13.347Z,49.52
2023-04-09T04:45:18.531Z,49.46
2023-04-09T04:46:24.101Z,49.49
2023-04-09T04:47:29.448Z,49.43
2023-04-09T04:48:34.747Z,49.37
2023-04-09T04:49:39.941Z,49.38
2023-04-09T04:50:45.137Z,49.3
2023-04-09T04:51:50.356Z,49.26
2023-04-09T04:52:55.585Z,49.25
2023-04-09T04:54:00.769Z,49.29
2023-04-09T04:55:06.106Z,49.31
2023-04-09T04:56:11.337Z,49.32
2023-04-09T04:57:16.535Z,49.37
2023-04-09T04:58:21.780Z,49.41
2023-04-09T04:59:26.979Z,49.42
2023-04-09T05:00:32.188Z,49.4
2023-04-09T05:01:37.866Z,49.5
2023-04-09T05:02:43.777Z,49.53
2023-04-09T05:03:49.508Z,49.55
2023-04-09T05:04:54.768Z,49.56
2023-04-09T05:05:59.984Z,49.6
2023-04-09T05:07:05.181Z,49.65
2023-04-09T05:08:10.414Z,49.67
2023-04-09T05:09:15.654Z,49.71
2023-04-09T05:10:20.868Z,49.68
2023-04-09T05:11:26.064Z,49.67
2023-04-09T05:12:31.229Z,49.67
2023-04-09T05:13:36.410Z,49.66
2023-04-09T05:14:41.656Z,49.64
2023-04-09T05:15:46.831Z,49.63
2023-04-09T05:16:52.201Z,49.62
2023-04-09T05:17:57.645Z,49.6
2023-04-09T05:19:02.840Z,49.53
2023-04-09T05:20:08.104Z,49.49
2023-04-09T05:21:13.289Z,49.48
2023-04-09T05:22:18.498Z,49.51
2023-04-09T05:23:23.694Z,49.52
2023-04-09T05:24:28.894Z,49.52
2023-04-09T05:25:34.099Z,49.58
2023-04-09T05:26:39.281Z,49.58
2023-04-09T05:27:44.526Z,49.61
2023-04-09T05:28:49.832Z,49.61
2023-04-09T05:29:55.096Z,49.65
2023-04-09T05:31:00.458Z,49.71
2023-04-09T05:32:05.668Z,49.73
2023-04-09T05:33:10.909Z,49.79
2023-04-09T05:34:16.111Z,49.76
2023-04-09T05:35:21.306Z,49.79
2023-04-09T05:36:26.497Z,49.8
2023-04-09T05:37:31.808Z,49.76
2023-04-09T05:38:37.010Z,49.76
2023-04-09T05:39:42.203Z,49.71
2023-04-09T05:40:48.995Z,49.64
2023-04-09T05:41:54.237Z,49.61
2023-04-09T05:42:59.497Z,49.57
2023-04-09T05:44:04.707Z,49.55
2023-04-09T05:45:09.984Z,49.56
2023-04-09T05:46:15.470Z,49.57
2023-04-09T05:47:20.768Z,49.57
2023-04-09T05:48:25.985Z,49.58
2023-04-09T05:49:31.160Z,49.62
2023-04-09T05:50:56.097Z,49.63
2023-04-09T05:52:01.355Z,49.65
2023-04-09T05:53:06.564Z,49.65
2023-04-09T05:54:11.772Z,49.67
2023-04-09T05:55:16.940Z,49.71
2023-04-09T05:56:22.152Z,49.71
2023-04-09T05:57:27.576Z,49.7
2023-04-09T05:58:32.767Z,49.73
2023-04-09T05:59:38.216Z,49.72
2023-04-09T06:00:43.407Z,49.67
2023-04-09T06:01:48.731Z,49.62
2023-04-09T06:02:54.250Z,49.58
2023-04-09T06:04:02.184Z,49.53
2023-04-09T06:05:07.848Z,49.52
2023-04-09T06:06:13.075Z,49.47
2023-04-09T06:07:18.253Z,49.45
2023-04-09T06:08:23.441Z,49.46
2023-04-09T06:09:28.662Z,49.47
2023-04-09T06:10:33.923Z,49.48
2023-04-09T06:11:39.133Z,49.48
2023-04-09T06:12:44.341Z,49.46
2023-04-09T06:13:49.565Z,49.49
2023-04-09T06:14:54.821Z,49.52
2023-04-09T06:16:00.166Z,49.56
2023-04-09T06:17:05.451Z,49.57
2023-04-09T06:18:10.731Z,49.55
2023-04-09T06:19:16.250Z,49.59
2023-04-09T06:20:21.467Z,49.59
2023-04-09T06:21:26.698Z,49.57
2023-04-09T06:22:31.871Z,49.61
2023-04-09T06:23:37.063Z,49.68
2023-04-09T06:24:42.265Z,49.68
2023-04-09T06:25:47.472Z,49.7
2023-04-09T06:26:52.676Z,49.73
2023-04-09T06:27:57.943Z,49.71
2023-04-09T06:29:03.162Z,49.72
2023-04-09T06:30:08.368Z,49.71
2023-04-09T06:31:13.790Z,49.7
2023-04-09T06:32:19.001Z,49.69
2023-04-09T06:33:24.332Z,49.64
2023-04-09T06:34:29.596Z,49.66
2023-04-09T06:35:34.947Z,49.62
2023-04-09T06:36:40.282Z,49.67
2023-04-09T06:37:45.527Z,49.7
2023-04-09T06:38:50.753Z,49.73
2023-04-09T06:40:04.028Z,49.75
2023-04-09T06:41:09.233Z,49.74
2023-04-09T06:42:14.491Z,49.77
2023-04-09T06:43:19.669Z,49.81
2023-04-09T06:44:24.873Z,49.79
2023-04-09T06:45:30.076Z,49.82
2023-04-09T06:46:35.375Z,49.85
2023-04-09T06:47:41.148Z,49.88
2023-04-09T06:48:46.349Z,49.9
2023-04-09T06:49:51.543Z,49.91
2023-04-09T06:50:56.758Z,49.93
2023-04-09T06:52:01.922Z,49.93
2023-04-09T06:53:07.170Z,49.97
2023-04-09T06:54:12.351Z,49.97
2023-04-09T06:55:17.574Z,50
2023-04-09T06:56:22.795Z,50.01
2023-04-09T06:57:27.963Z,50.02
2023-04-09T06:58:33.173Z,50.04
2023-04-09T06:59:38.396Z,50.05
2023-04-09T07:00:43.713Z,50.05
2023-04-09T07:01:49.413Z,50.07
2023-04-09T07:02:55.999Z,50.12
2023-04-09T07:04:01.701Z,50.13
2023-04-09T07:05:06.920Z,50.14
2023-04-09T07:06:12.193Z,50.15
2023-04-09T07:07:17.526Z,50.13
2023-04-09T07:08:22.706Z,50.14
2023-04-09T07:09:27.903Z,50.17
2023-04-09T07:10:33.124Z,50.1
2023-04-09T07:11:38.314Z,50.13
2023-04-09T07:12:43.526Z,50.16
2023-04-09T07:13:48.747Z,50.3
2023-04-09T07:14:54.003Z,50.48
2023-04-09T07:15:59.332Z,50.67
2023-04-09T07:17:04.529Z,50.85
2023-04-09T07:18:09.873Z,50.91
2023-04-09T07:19:15.117Z,51.14
2023-04-09T07:20:20.670Z,51.3
2023-04-09T07:21:25.930Z,51.46
2023-04-09T07:22:31.125Z,51.81
2023-04-09T07:23:36.336Z,52.07
2023-04-09T07:24:41.545Z,52.62
2023-04-09T07:25:46.772Z,52.89
2023-04-09T07:26:54.597Z,53.17
2023-04-09T07:27:59.828Z,53.49
2023-04-09T07:29:05.040Z,53.68
2023-04-09T07:30:10.567Z,53.89
2023-04-09T07:31:15.889Z,53.95
2023-04-09T07:32:21.129Z,53.85
2023-04-09T07:33:26.372Z,53.81
2023-04-09T07:34:31.571Z,53.65
2023-04-09T07:35:36.883Z,53.64
2023-04-09T07:36:42.138Z,53.61
2023-04-09T07:37:47.476Z,53.61
2023-04-09T07:38:53.242Z,53.6
2023-04-09T07:39:58.585Z,53.48
2023-04-09T07:41:03.781Z,52.96
2023-04-09T07:42:09.247Z,52.95
2023-04-09T07:43:14.449Z,53.21
2023-04-09T07:44:19.743Z,53.4
2023-04-09T07:45:24.970Z,53.46
2023-04-09T07:46:30.293Z,53.23
2023-04-09T07:47:35.553Z,52.99
2023-04-09T07:48:40.763Z,52.96
2023-04-09T07:49:46.017Z,52.98
2023-04-09T07:50:51.194Z,53.25
2023-04-09T07:51:56.385Z,53.25
2023-04-09T07:53:01.615Z,53.19
2023-04-09T07:54:06.814Z,53.13
2023-04-09T07:55:12.008Z,53.04
2023-04-09T07:56:17.203Z,53.18
2023-04-09T07:57:22.412Z,53.38
2023-04-09T07:58:27.617Z,53.48
2023-04-09T07:59:33.038Z,53.49
2023-04-09T08:00:38.223Z,53.75
2023-04-09T08:01:43.808Z,53.73
2023-04-09T08:02:49.625Z,53.85
2023-04-09T08:03:55.686Z,53.91
2023-04-09T08:05:01.282Z,54.08
2023-04-09T08:06:06.516Z,54.29
2023-04-09T08:07:11.719Z,54.51
2023-04-09T08:08:16.941Z,54.53
2023-04-09T08:09:22.308Z,54.52
2023-04-09T08:10:27.533Z,54.54
2023-04-09T08:11:32.744Z,54.62
2023-04-09T08:12:37.932Z,54.34
2023-04-09T08:13:43.125Z,54.67
2023-04-09T08:14:48.344Z,54.81
2023-04-09T08:15:53.527Z,54.92
2023-04-09T08:16:58.818Z,54.65
2023-04-09T08:18:04.158Z,54.39
2023-04-09T08:19:09.410Z,54.41
2023-04-09T08:20:14.641Z,54.37
2023-04-09T08:21:19.825Z,54.45
2023-04-09T08:22:25.009Z,54.68
2023-04-09T08:23:30.199Z,54.74
2023-04-09T08:24:35.397Z,54.79
2023-04-09T08:25:40.630Z,54.88
2023-04-09T08:26:45.838Z,55.27
2023-04-09T08:27:51.053Z,55.33
2023-04-09T08:28:56.928Z,55.45
2023-04-09T08:30:05.308Z,55.38
2023-04-09T08:31:10.510Z,55.34
2023-04-09T08:32:15.844Z,55.29
2023-04-09T08:33:21.101Z,55.11
2023-04-09T08:34:26.419Z,54.95
2023-04-09T08:35:31.706Z,54.75
2023-04-09T08:36:37.185Z,54.6
2023-04-09T08:37:42.460Z,54.46
2023-04-09T08:38:47.660Z,54.28
2023-04-09T08:39:52.900Z,54.23
2023-04-09T08:40:58.149Z,54
2023-04-09T08:42:03.510Z,53.85
2023-04-09T08:43:08.819Z,53.64
2023-04-09T08:44:14.024Z,53.52
2023-04-09T08:45:19.261Z,53.38
2023-04-09T08:46:24.872Z,53.31
2023-04-09T08:47:30.415Z,52.99
2023-04-09T08:48:35.909Z,52.78
2023-04-09T08:49:41.185Z,52.61
2023-04-09T08:50:46.413Z,52.4
2023-04-09T08:51:51.749Z,52.25
2023-04-09T08:52:57.080Z,52.09
2023-04-09T08:54:06.656Z,51.94
2023-04-09T08:55:11.944Z,51.83
2023-04-09T08:56:17.233Z,51.76
2023-04-09T08:57:22.440Z,51.71
2023-04-09T08:58:27.652Z,51.73
2023-04-09T08:59:32.832Z,51.72
2023-04-09T09:00:38.219Z,51.77
2023-04-09T09:01:43.839Z,51.74
2023-04-09T09:02:49.396Z,51.83
2023-04-09T09:03:55.126Z,51.81
2023-04-09T09:05:00.470Z,51.9
2023-04-09T09:06:05.649Z,51.93
2023-04-09T09:07:10.852Z,52
2023-04-09T09:08:16.106Z,52.08
2023-04-09T09:09:21.310Z,52.12
2023-04-09T09:10:26.582Z,52.16
2023-04-09T09:11:31.814Z,52.2
2023-04-09T09:12:37.049Z,52.24
2023-04-09T09:13:42.293Z,52.26
2023-04-09T09:14:47.504Z,52.26
2023-04-09T09:15:52.699Z,52.23
2023-04-09T09:16:58.267Z,52.21
2023-04-09T09:18:03.859Z,52.21
2023-04-09T09:19:09.121Z,52.21
2023-04-09T09:20:14.363Z,52.17
2023-04-09T09:21:19.593Z,52.14
2023-04-09T09:22:24.955Z,52.12
2023-04-09T09:23:30.187Z,52.02
2023-04-09T09:24:35.372Z,52.06
2023-04-09T09:25:40.564Z,51.95
2023-04-09T09:26:45.742Z,51.94
2023-04-09T09:27:50.964Z,51.83
2023-04-09T09:28:57.016Z,51.76
2023-04-09T09:30:02.253Z,51.81
2023-04-09T09:31:07.793Z,51.71
2023-04-09T09:32:13.097Z,51.63
2023-04-09T09:33:18.357Z,51.57
2023-04-09T09:34:23.621Z,51.53
2023-04-09T09:35:29.027Z,51.43
2023-04-09T09:36:34.295Z,51.43
2023-04-09T09:37:39.519Z,51.3
2023-04-09T09:38:44.718Z,51.26
2023-04-09T09:39:49.954Z,51.19
2023-04-09T09:40:55.296Z,51.12
2023-04-09T09:42:00.515Z,51.12
2023-04-09T09:43:05.705Z,51.06
2023-04-09T09:44:10.923Z,51.02
2023-04-09T09:45:16.121Z,50.9
2023-04-09T09:46:21.417Z,50.96
2023-04-09T09:47:26.876Z,50.89
2023-04-09T09:48:32.063Z,50.89
2023-04-09T09:49:37.246Z,50.81
2023-04-09T09:50:42.432Z,50.88
2023-04-09T09:51:47.630Z,50.85
2023-04-09T09:52:52.829Z,50.81
2023-04-09T09:53:58.056Z,50.83
2023-04-09T09:55:03.266Z,50.83
2023-04-09T09:56:08.465Z,50.75
2023-04-09T09:57:13.679Z,50.78
2023-04-09T09:58:18.955Z,50.75
2023-04-09T09:59:24.186Z,50.71
2023-04-09T10:00:29.405Z,50.63
2023-04-09T10:01:34.937Z,50.63
2023-04-09T10:02:40.636Z,50.57
2023-04-09T10:03:45.977Z,50.58
2023-04-09T10:04:51.663Z,50.55
2023-04-09T10:05:56.991Z,50.57
2023-04-09T10:07:02.200Z,50.61
2023-04-09T10:08:07.424Z,50.7
2023-04-09T10:09:12.691Z,50.81
2023-04-09T10:10:17.900Z,50.93
2023-04-09T10:11:23.078Z,51.07
2023-04-09T10:12:28.266Z,51.21
2023-04-09T10:13:33.499Z,51.25
2023-04-09T10:14:38.887Z,51.32
2023-04-09T10:15:44.157Z,51.6
2023-04-09T10:16:49.401Z,51.7
2023-04-09T10:17:54.731Z,51.89
2023-04-09T10:18:59.945Z,52.01
2023-04-09T10:20:05.215Z,52.14
2023-04-09T10:21:10.498Z,52.22
2023-04-09T10:22:15.736Z,52.28
2023-04-09T10:23:21.183Z,52.38
2023-04-09T10:24:26.402Z,52.47
2023-04-09T10:25:31.664Z,52.57
2023-04-09T10:26:36.846Z,52.64
2023-04-09T10:27:42.067Z,52.71
2023-04-09T10:28:47.261Z,52.75
2023-04-09T10:29:52.470Z,52.75
2023-04-09T10:30:57.785Z,52.75
2023-04-09T10:32:02.978Z,53
2023-04-09T10:33:08.602Z,53.04
2023-04-09T10:34:13.858Z,53.16
2023-04-09T10:35:19.041Z,53.25
2023-04-09T10:36:24.400Z,53.59
2023-04-09T10:37:29.596Z,53.44
2023-04-09T10:38:34.768Z,53.79
2023-04-09T10:39:39.956Z,53.97
2023-04-09T10:40:45.140Z,54.15
2023-04-09T10:41:50.323Z,54.07
2023-04-09T10:42:55.505Z,54.16
2023-04-09T10:44:00.679Z,54.36
2023-04-09T10:45:05.880Z,54.19
2023-04-09T10:46:11.228Z,54.11
2023-04-09T10:47:16.456Z,54.26
2023-04-09T10:48:21.671Z,54.62
2023-04-09T10:49:26.988Z,54.6
2023-04-09T10:50:32.228Z,54.7
2023-04-09T10:51:37.447Z,54.75
2023-04-09T10:52:42.723Z,54.38
2023-04-09T10:53:47.897Z,54.14
2023-04-09T10:54:53.109Z,54.22
2023-04-09T10:55:58.323Z,54.1
2023-04-09T10:57:03.518Z,54.29
2023-04-09T10:58:13.397Z,54.31
2023-04-09T10:59:18.974Z,54.4
2023-04-09T11:00:24.247Z,54.44
2023-04-09T11:01:29.587Z,54.5
2023-04-09T11:02:35.470Z,54.5
2023-04-09T11:03:40.899Z,54.46
2023-04-09T11:04:46.301Z,54.5
2023-04-09T11:05:51.534Z,54.57
2023-04-09T11:06:56.925Z,54.59
2023-04-09T11:08:02.112Z,54.64
2023-04-09T11:09:07.289Z,54.65
2023-04-09T11:10:12.516Z,54.64
2023-04-09T11:11:17.843Z,54.67
2023-04-09T11:12:23.097Z,54.73
2023-04-09T11:13:28.389Z,54.78
2023-04-09T11:14:33.597Z,54.9
2023-04-09T11:15:38.875Z,54.9
2023-04-09T11:16:44.353Z,54.98
2023-04-09T11:17:49.802Z,54.99
2023-04-09T11:18:55.588Z,54.98
2023-04-09T11:20:00.793Z,55
2023-04-09T11:21:06.239Z,55.17
2023-04-09T11:22:11.427Z,55.22
2023-04-09T11:23:16.610Z,55.27
2023-04-09T11:24:21.832Z,55.4
2023-04-09T11:25:27.042Z,55.53
2023-04-09T11:26:32.272Z,55.75
2023-04-09T11:27:37.560Z,55.86
2023-04-09T11:28:42.773Z,56.08
2023-04-09T11:29:47.957Z,56.04
2023-04-09T11:30:53.164Z,56.08
2023-04-09T11:31:58.621Z,56.2
2023-04-09T11:33:04.173Z,56.33
2023-04-09T11:34:09.418Z,56.31
2023-04-09T11:35:14.586Z,56.4
2023-04-09T11:36:19.912Z,56.59
2023-04-09T11:37:25.188Z,56.62
2023-04-09T11:38:30.368Z,56.68
2023-04-09T11:39:35.586Z,56.66
2023-04-09T11:40:40.780Z,56.65
2023-04-09T11:41:45.970Z,56.72
2023-04-09T11:42:51.196Z,56.87
2023-04-09T11:43:56.414Z,56.77
2023-04-09T11:45:01.611Z,56.97
2023-04-09T11:46:06.798Z,57
2023-04-09T11:47:12.239Z,56.96
2023-04-09T11:48:17.436Z,56.88
2023-04-09T11:49:22.623Z,56.88
2023-04-09T11:50:27.848Z,56.78
2023-04-09T11:51:33.058Z,56.73
2023-04-09T11:52:38.202Z,56.81
2023-04-09T11:53:43.386Z,56.72
2023-04-09T11:54:48.563Z,56.7
2023-04-09T11:55:53.886Z,56.65
2023-04-09T11:56:59.078Z,56.49
2023-04-09T11:58:04.367Z,56.48
2023-04-09T11:59:09.657Z,56.41
2023-04-09T12:00:14.884Z,56.44
2023-04-09T12:01:20.084Z,56.38
2023-04-09T12:02:25.930Z,56.39
2023-04-09T12:03:32.069Z,56.43
2023-04-09T12:04:37.789Z,56.33
2023-04-09T12:05:51.099Z,56.47
2023-04-09T12:06:56.463Z,56.45
2023-04-09T12:08:01.677Z,56.5
2023-04-09T12:09:06.910Z,56.46
2023-04-09T12:10:12.125Z,56.5
2023-04-09T12:11:17.356Z,56.5
2023-04-09T12:12:22.559Z,56.51
2023-04-09T12:13:27.724Z,56.61
2023-04-09T12:14:32.902Z,56.6
2023-04-09T12:15:38.090Z,56.65
2023-04-09T12:16:43.480Z,56.65
2023-04-09T12:17:48.827Z,56.7
2023-04-09T12:18:54.912Z,56.74
2023-04-09T12:20:00.265Z,56.73
2023-04-09T12:21:05.487Z,56.75
2023-04-09T12:22:10.911Z,56.8
2023-04-09T12:23:16.220Z,56.8
2023-04-09T12:24:21.435Z,56.77
2023-04-09T12:25:26.703Z,56.49
2023-04-09T12:26:31.918Z,56.49
2023-04-09T12:27:37.149Z,56.59
2023-04-09T12:28:42.335Z,56.63
2023-04-09T12:29:47.544Z,56.75
2023-04-09T12:31:00.916Z,56.67
2023-04-09T12:32:06.278Z,56.72
2023-04-09T12:33:13.822Z,56.63
2023-04-09T12:34:19.019Z,56.68
2023-04-09T12:35:24.662Z,56.65
2023-04-09T12:36:29.930Z,56.61
2023-04-09T12:37:35.187Z,56.57
2023-04-09T12:38:40.408Z,56.69
2023-04-09T12:39:45.574Z,56.76
2023-04-09T12:40:50.767Z,56.77
2023-04-09T12:41:55.943Z,56.86
2023-04-09T12:43:01.125Z,56.84
2023-04-09T12:44:06.477Z,56.87
2023-04-09T12:45:11.676Z,56.81
2023-04-09T12:46:17.074Z,56.75
2023-04-09T12:47:22.302Z,56.8
2023-04-09T12:48:27.552Z,56.78
2023-04-09T12:49:32.734Z,56.71
2023-04-09T12:50:37.970Z,56.68
2023-04-09T12:51:43.157Z,56.6
2023-04-09T12:52:48.417Z,56.66
2023-04-09T12:53:54.627Z,56.64
2023-04-09T12:54:59.987Z,56.59
2023-04-09T12:56:05.193Z,56.65
2023-04-09T12:57:10.393Z,56.56
2023-04-09T12:58:15.602Z,56.45
2023-04-09T12:59:20.835Z,56.41
2023-04-09T13:00:26.085Z,56.33
2023-04-09T13:01:31.383Z,56.25
2023-04-09T13:02:37.515Z,56.24
2023-04-09T13:03:43.830Z,56.12
2023-04-09T13:04:49.168Z,56
2023-04-09T13:05:54.367Z,55.95
2023-04-09T13:06:59.558Z,55.98
2023-04-09T13:08:04.817Z,55.94
2023-04-09T13:09:10.012Z,55.99
2023-04-09T13:10:15.234Z,55.94
2023-04-09T13:11:20.404Z,55.85
2023-04-09T13:12:25.597Z,55.76
2023-04-09T13:13:30.774Z,55.69
2023-04-09T13:14:35.981Z,55.66
2023-04-09T13:15:41.182Z,55.67
2023-04-09T13:16:46.575Z,55.58
2023-04-09T13:17:51.987Z,55.48
2023-04-09T13:18:57.536Z,55.41
2023-04-09T13:20:03.139Z,55.34
2023-04-09T13:21:08.367Z,55.38
2023-04-09T13:22:13.564Z,55.24
2023-04-09T13:23:18.932Z,55.23
2023-04-09T13:24:24.106Z,55.18
2023-04-09T13:25:29.346Z,55.09
2023-04-09T13:26:34.551Z,55.06
2023-04-09T13:27:39.778Z,54.99
2023-04-09T13:28:44.968Z,54.96
2023-04-09T13:29:50.138Z,54.91
2023-04-09T13:30:55.536Z,54.83
2023-04-09T13:32:00.813Z,54.76
2023-04-09T13:33:06.236Z,54.69
2023-04-09T13:34:11.458Z,54.59
2023-04-09T13:35:16.669Z,54.55
2023-04-09T13:36:21.895Z,54.48
2023-04-09T13:37:27.095Z,54.33
2023-04-09T13:38:32.512Z,54.26
2023-04-09T13:39:37.707Z,54.19
2023-04-09T13:40:42.902Z,54.09
2023-04-09T13:41:48.091Z,54
2023-04-09T13:42:53.391Z,53.99
2023-04-09T13:43:58.562Z,53.96
2023-04-09T13:45:03.848Z,53.9
2023-04-09T13:46:09.188Z,53.8
2023-04-09T13:47:14.414Z,53.76
2023-04-09T13:48:19.733Z,53.67
2023-04-09T13:49:24.930Z,53.61
2023-04-09T13:50:30.131Z,53.57
2023-04-09T13:51:35.336Z,53.47
2023-04-09T13:52:40.548Z,53.46
2023-04-09T13:53:45.748Z,53.42
2023-04-09T13:54:50.945Z,53.36
2023-04-09T13:55:56.166Z,53.27
2023-04-09T13:57:01.375Z,53.19
2023-04-09T13:58:06.582Z,53.12
2023-04-09T13:59:11.852Z,53.03
2023-04-09T14:00:17.064Z,52.95
2023-04-09T14:01:22.330Z,52.88
2023-04-09T14:02:28.147Z,52.76
2023-04-09T14:03:33.759Z,52.67
2023-04-09T14:04:39.129Z,52.6
2023-04-09T14:05:44.353Z,52.58